Time;durP1;ratioP1;P1;durP2;ratioP2;P2;SDS_P1;SDS_P2;PMS_P1;PMS_P2;Temp;Humidity;BMP_temperature;BMP_pressure;BME280_temperature;BME280_humidity;BME280_pressure;Samples;Min_cycle;Max_cycle;Signal;HPM_P1;HPM_P2
2022/04/25 00:00:22;;;;;;;12.00;9.60;;;8.80;99.90;;;;;;5116632;28;20465;-72
2022/04/25 00:02:50;;;;;;;10.33;8.73;;;8.80;99.90;;;;;;5116557;28;20464;-72
2022/04/25 00:05:18;;;;;;;10.10;8.80;;;8.80;99.90;;;;;;5116882;28;20448;-72
2022/04/25 00:07:44;;;;;;;11.40;9.67;;;8.70;99.90;;;;;;5116699;28;20460;-72
2022/04/25 00:10:13;;;;;;;17.73;9.40;;;8.70;99.90;;;;;;5116812;28;20900;-72
2022/04/25 00:12:40;;;;;;;14.07;9.23;;;8.60;99.90;;;;;;5116757;28;21012;-71
2022/04/25 00:15:07;;;;;;;14.70;9.47;;;8.60;99.90;;;;;;5117238;28;20473;-71
2022/04/25 00:17:34;;;;;;;11.80;9.27;;;8.60;99.90;;;;;;5117230;28;20487;-72
2022/04/25 00:20:01;;;;;;;13.60;9.60;;;8.60;99.90;;;;;;5117129;28;20452;-72
2022/04/25 00:22:29;;;;;;;17.40;9.80;;;8.60;99.90;;;;;;5117290;28;20745;-72
2022/04/25 00:24:55;;;;;;;11.10;10.00;;;8.60;99.90;;;;;;5116053;28;20913;-70
2022/04/25 00:27:22;;;;;;;16.40;10.10;;;8.50;99.90;;;;;;5115465;28;20525;-71
2022/04/25 00:29:49;;;;;;;12.70;9.27;;;8.50;99.90;;;;;;5116625;28;20856;-71
2022/04/25 00:32:15;;;;;;;10.23;9.13;;;8.50;99.90;;;;;;5116445;28;20800;-71
2022/04/25 00:34:42;;;;;;;14.33;9.63;;;8.50;99.90;;;;;;5116342;28;20473;-71
2022/04/25 00:37:09;;;;;;;17.40;9.63;;;8.60;99.90;;;;;;5116402;28;20452;-71
2022/04/25 00:39:37;;;;;;;12.73;9.30;;;8.60;99.90;;;;;;5116711;28;20905;-71
2022/04/25 00:42:04;;;;;;;12.67;10.40;;;8.50;99.90;;;;;;5116597;28;20461;-71
2022/04/25 00:44:31;;;;;;;14.23;10.90;;;8.60;99.90;;;;;;5116453;28;20887;-71
2022/04/25 00:46:59;;;;;;;16.10;10.40;;;8.60;99.90;;;;;;5116214;28;20801;-71
2022/04/25 00:49:26;;;;;;;16.70;12.30;;;8.50;99.90;;;;;;5117181;28;20462;-71
2022/04/25 00:51:53;;;;;;;14.10;10.90;;;8.50;99.90;;;;;;5117238;28;20553;-71
2022/04/25 00:54:21;;;;;;;15.87;10.87;;;8.50;99.90;;;;;;5116080;28;20975;-71
2022/04/25 00:56:49;;;;;;;15.50;10.63;;;8.50;99.90;;;;;;5115870;28;20549;-71
2022/04/25 00:59:17;;;;;;;13.90;10.20;;;8.50;99.90;;;;;;5116319;28;20460;-71
2022/04/25 01:01:45;;;;;;;17.40;11.10;;;8.50;99.90;;;;;;5116817;28;20455;-71
2022/04/25 01:04:12;;;;;;;14.47;11.30;;;8.50;99.90;;;;;;5116182;28;20452;-72
2022/04/25 01:06:39;;;;;;;14.23;12.30;;;8.50;99.90;;;;;;5116036;28;20467;-71
2022/04/25 01:09:06;;;;;;;13.13;11.53;;;8.50;99.90;;;;;;5116001;28;20456;-72
2022/04/25 01:11:33;;;;;;;18.77;11.80;;;8.50;99.90;;;;;;5115513;28;20465;-72
2022/04/25 01:14:12;;;;;;;15.10;11.90;;;8.50;99.90;;;;;;5115652;28;20535;-72
2022/04/25 01:16:39;;;;;;;14.80;11.33;;;8.50;99.90;;;;;;5116253;28;20472;-71
2022/04/25 01:19:05;;;;;;;15.47;11.67;;;8.40;99.90;;;;;;5115795;28;20467;-71
2022/04/25 01:21:37;;;;;;;13.40;10.97;;;8.30;99.90;;;;;;5116098;28;20479;-71
2022/04/25 01:29:37;;;;;;;14.77;11.40;;;8.30;99.90;;;;;;5116336;28;20606;-72
2022/04/25 01:32:04;;;;;;;15.10;12.30;;;8.30;99.90;;;;;;5115875;28;20464;-71
2022/04/25 01:34:32;;;;;;;13.47;12.03;;;8.30;99.90;;;;;;5115977;28;20484;-71
2022/04/25 01:37:01;;;;;;;16.33;11.80;;;8.30;99.90;;;;;;5115889;28;20466;-72
2022/04/25 01:39:29;;;;;;;17.47;12.07;;;8.30;99.90;;;;;;5120430;28;20795;-71
2022/04/25 01:41:56;;;;;;;16.30;12.27;;;8.30;99.90;;;;;;5120184;28;20548;-71
2022/04/25 01:44:23;;;;;;;15.60;12.40;;;8.20;99.90;;;;;;5119336;28;20448;-71
2022/04/25 01:46:49;;;;;;;20.87;13.20;;;8.20;99.90;;;;;;5119854;28;20460;-71
2022/04/25 01:49:16;;;;;;;16.40;12.10;;;8.20;99.90;;;;;;5119388;28;20513;-71
2022/04/25 01:51:43;;;;;;;18.13;12.63;;;8.20;99.90;;;;;;5119511;28;20789;-71
2022/04/25 01:54:10;;;;;;;15.43;12.40;;;8.20;99.90;;;;;;5119086;28;20456;-71
2022/04/25 01:56:38;;;;;;;18.90;13.47;;;8.20;99.90;;;;;;5119558;28;20476;-72
2022/04/25 01:59:04;;;;;;;15.80;12.33;;;8.20;99.90;;;;;;5119287;28;20448;-71
2022/04/25 02:01:31;;;;;;;16.63;12.90;;;8.20;99.90;;;;;;5118740;28;20464;-72
2022/04/25 02:03:58;;;;;;;20.73;13.77;;;8.20;99.90;;;;;;5118775;28;20947;-71
2022/04/25 02:06:24;;;;;;;13.90;11.63;;;8.20;99.90;;;;;;5118283;28;20905;-71
2022/04/25 02:08:51;;;;;;;17.50;12.83;;;8.20;99.90;;;;;;5119238;28;20467;-71
2022/04/25 02:11:21;;;;;;;20.80;13.73;;;8.20;99.90;;;;;;5118585;28;20471;-71
2022/04/25 02:13:51;;;;;;;20.20;12.63;;;8.10;99.90;;;;;;5118982;28;20535;-71
2022/04/25 02:16:18;;;;;;;19.23;13.60;;;8.00;99.90;;;;;;5118663;28;20549;-71
2022/04/25 02:18:45;;;;;;;16.93;13.10;;;8.00;99.90;;;;;;5119228;28;20470;-71
2022/04/25 02:21:12;;;;;;;17.80;12.90;;;8.00;99.90;;;;;;5118540;28;20459;-71
2022/04/25 02:23:39;;;;;;;20.50;13.50;;;8.00;99.90;;;;;;5118750;28;20452;-71
2022/04/25 02:26:06;;;;;;;19.00;13.50;;;8.00;99.90;;;;;;5118749;28;20444;-71
2022/04/25 02:28:34;;;;;;;16.70;13.90;;;8.00;99.90;;;;;;5118814;28;20453;-71
2022/04/25 02:31:04;;;;;;;17.93;12.40;;;8.00;99.90;;;;;;5118884;28;20448;-71
2022/04/25 02:33:32;;;;;;;16.30;12.10;;;8.10;99.90;;;;;;5118438;28;20448;-71
2022/04/25 02:35:58;;;;;;;15.63;13.27;;;8.10;99.90;;;;;;5118876;28;20473;-71
2022/04/25 02:38:25;;;;;;;18.00;12.50;;;8.00;99.90;;;;;;5118341;28;20924;-71
2022/04/25 02:41:05;;;;;;;18.50;13.10;;;8.00;99.90;;;;;;5118065;28;20517;-71
2022/04/25 02:43:34;;;;;;;20.07;14.53;;;8.00;99.90;;;;;;5118797;28;20469;-71
2022/04/25 02:46:03;;;;;;;16.93;13.40;;;8.00;99.90;;;;;;5118258;28;20460;-71
2022/04/25 02:48:30;;;;;;;16.80;13.10;;;7.90;99.90;;;;;;5117700;28;20457;-71
2022/04/25 02:50:57;;;;;;;21.50;14.57;;;7.90;99.90;;;;;;5117701;28;20529;-71
2022/04/25 02:53:25;;;;;;;18.13;14.13;;;7.90;99.90;;;;;;5118183;28;20507;-71
2022/04/25 02:55:52;;;;;;;23.27;13.20;;;7.90;99.90;;;;;;5117606;28;20910;-71
2022/04/25 02:58:19;;;;;;;19.20;14.03;;;7.90;99.90;;;;;;5117760;28;20495;-71
2022/04/25 03:00:46;;;;;;;17.70;12.40;;;7.80;99.90;;;;;;5117356;28;20512;-71
2022/04/25 03:03:15;;;;;;;16.13;13.30;;;7.80;99.90;;;;;;5118638;28;20492;-71
2022/04/25 03:05:43;;;;;;;23.90;14.10;;;7.80;99.90;;;;;;5117671;28;20928;-71
2022/04/25 03:08:10;;;;;;;18.40;13.83;;;7.80;99.90;;;;;;5118057;28;20492;-71
2022/04/25 03:10:37;;;;;;;18.43;13.57;;;7.80;99.90;;;;;;5118127;28;20468;-71
2022/04/25 03:13:06;;;;;;;19.73;14.73;;;7.80;99.90;;;;;;5117529;28;20544;-71
2022/04/25 03:15:33;;;;;;;19.57;14.30;;;7.80;99.90;;;;;;5117737;28;20476;-71
2022/04/25 03:18:00;;;;;;;19.23;13.33;;;7.70;99.90;;;;;;5117652;28;20464;-71
2022/04/25 03:20:29;;;;;;;17.20;12.40;;;7.70;99.90;;;;;;5117754;28;20970;-71
2022/04/25 03:22:55;;;;;;;22.87;13.93;;;7.70;99.90;;;;;;5117918;28;20456;-71
2022/04/25 03:25:22;;;;;;;25.93;13.97;;;7.70;99.90;;;;;;5118057;28;20445;-71
2022/04/25 03:27:49;;;;;;;19.13;14.90;;;7.70;99.90;;;;;;5118142;28;20456;-71
2022/04/25 03:30:16;;;;;;;21.83;14.97;;;7.60;99.90;;;;;;5118436;28;20513;-71
2022/04/25 03:32:45;;;;;;;17.70;13.73;;;7.60;99.90;;;;;;5117951;28;20463;-71
2022/04/25 03:35:12;;;;;;;22.40;14.47;;;7.60;99.90;;;;;;5117601;28;20515;-71
2022/04/25 03:37:40;;;;;;;20.80;14.80;;;7.60;99.90;;;;;;5117699;28;20459;-71
2022/04/25 03:40:09;;;;;;;22.80;13.73;;;7.60;99.90;;;;;;5116846;28;20467;-72
2022/04/25 03:42:36;;;;;;;27.17;14.67;;;7.60;99.90;;;;;;5116917;28;20857;-71
2022/04/25 03:45:03;;;;;;;18.77;14.10;;;7.60;99.90;;;;;;5116849;28;20454;-71
2022/04/25 03:47:30;;;;;;;23.30;13.50;;;7.60;99.90;;;;;;5116475;28;20440;-71
2022/04/25 03:49:57;;;;;;;19.80;14.37;;;7.60;99.90;;;;;;5116711;28;20458;-71
2022/04/25 03:52:23;;;;;;;18.90;13.50;;;7.70;99.90;;;;;;5116822;28;20457;-71
2022/04/25 03:57:36;;;;;;;17.70;12.80;;;7.70;99.90;;;;;;5116681;28;20439;-71
2022/04/25 04:00:05;;;;;;;20.77;12.83;;;7.70;99.90;;;;;;5116717;28;20456;-70
2022/04/25 04:02:31;;;;;;;17.80;13.97;;;7.80;99.90;;;;;;5116164;28;20948;-70
2022/04/25 04:04:58;;;;;;;18.20;13.60;;;7.80;99.90;;;;;;5116985;28;20449;-72
2022/04/25 04:07:25;;;;;;;41.43;27.23;;;7.80;99.90;;;;;;5116766;28;20479;-72
2022/04/25 04:09:53;;;;;;;22.57;13.53;;;7.80;99.90;;;;;;5116581;28;20456;-71
2022/04/25 04:12:21;;;;;;;17.90;13.27;;;7.80;99.90;;;;;;5116143;28;20917;-71
2022/04/25 04:14:48;;;;;;;18.60;13.77;;;7.80;99.90;;;;;;5116284;28;20954;-71
2022/04/25 04:17:14;;;;;;;20.13;14.07;;;7.80;99.90;;;;;;5116333;28;20456;-72
2022/04/25 04:19:41;;;;;;;16.50;13.50;;;7.80;99.90;;;;;;5116758;28;20461;-71
2022/04/25 04:22:08;;;;;;;19.47;12.53;;;7.80;99.90;;;;;;5116376;28;20480;-71
2022/04/25 04:24:35;;;;;;;15.80;11.63;;;7.80;99.90;;;;;;5116117;28;20464;-71
2022/04/25 04:27:04;;;;;;;20.50;13.33;;;7.70;99.90;;;;;;5116050;28;20448;-71
2022/04/25 04:29:31;;;;;;;16.50;12.70;;;7.80;99.90;;;;;;5116200;28;20463;-71
2022/04/25 04:31:58;;;;;;;20.30;13.63;;;7.80;99.90;;;;;;5116020;28;20468;-71
2022/04/25 04:34:25;;;;;;;18.50;13.33;;;7.70;99.90;;;;;;5116251;28;20456;-71
2022/04/25 04:36:52;;;;;;;17.00;12.57;;;7.70;99.90;;;;;;5115826;28;20782;-71
2022/04/25 04:39:18;;;;;;;15.77;12.07;;;7.80;99.90;;;;;;5116466;28;20755;-71
2022/04/25 04:41:45;;;;;;;56.33;35.23;;;7.90;99.90;;;;;;5117103;28;20794;-72
2022/04/25 04:44:14;;;;;;;21.87;15.50;;;8.00;99.90;;;;;;5116793;28;20474;-71
2022/04/25 04:46:41;;;;;;;21.07;13.90;;;8.00;99.90;;;;;;5115808;28;20460;-72
2022/04/25 04:49:07;;;;;;;21.60;13.53;;;8.10;99.90;;;;;;5115658;28;20475;-71
2022/04/25 04:51:34;;;;;;;34.13;25.00;;;8.10;99.90;;;;;;5115458;28;20521;-71
2022/04/25 04:54:02;;;;;;;21.30;14.10;;;8.10;99.90;;;;;;5115016;28;20456;-72
2022/04/25 04:56:30;;;;;;;18.97;13.50;;;8.10;99.90;;;;;;5115218;28;20541;-71
2022/04/25 04:58:57;;;;;;;16.03;13.60;;;8.10;99.90;;;;;;5115880;28;20460;-72
2022/04/25 05:01:25;;;;;;;17.17;13.33;;;8.10;99.90;;;;;;5115768;28;20816;-71
2022/04/25 05:03:52;;;;;;;15.83;11.70;;;8.10;99.90;;;;;;5115556;28;20477;-72
2022/04/25 05:06:19;;;;;;;15.27;12.70;;;8.10;99.90;;;;;;5115753;28;20448;-72
2022/04/25 05:08:46;;;;;;;18.97;13.50;;;8.00;99.90;;;;;;5115449;28;20452;-71
2022/04/25 05:11:12;;;;;;;17.30;12.30;;;8.00;99.90;;;;;;5115919;28;20457;-73
2022/04/25 05:13:39;;;;;;;29.83;20.00;;;8.10;99.90;;;;;;5115184;28;20464;-72
2022/04/25 05:16:07;;;;;;;16.70;12.47;;;8.10;99.90;;;;;;5115273;28;20477;-72
2022/04/25 05:18:35;;;;;;;14.40;11.70;;;8.10;99.90;;;;;;5115390;28;20503;-72
2022/04/25 05:21:02;;;;;;;17.47;11.50;;;8.10;99.90;;;;;;5115163;28;20456;-71
2022/04/25 05:23:30;;;;;;;16.10;12.23;;;8.20;99.90;;;;;;5115601;28;20513;-70
2022/04/25 05:25:56;;;;;;;15.00;10.63;;;8.20;99.90;;;;;;5115384;28;20463;-71
2022/04/25 05:28:25;;;;;;;12.87;10.20;;;8.30;99.90;;;;;;5116077;28;20460;-72
2022/04/25 05:30:52;;;;;;;15.03;10.30;;;8.20;99.90;;;;;;5115600;28;20943;-71
2022/04/25 05:33:21;;;;;;;14.20;10.87;;;8.30;99.90;;;;;;5116061;28;20448;-72
2022/04/25 05:35:49;;;;;;;16.40;9.97;;;8.30;99.90;;;;;;5115399;28;20997;-72
2022/04/25 05:38:16;;;;;;;13.47;9.03;;;8.40;99.90;;;;;;5115202;28;20621;-72
2022/04/25 05:40:43;;;;;;;14.80;9.87;;;8.40;99.90;;;;;;5114959;28;20456;-71
2022/04/25 05:43:10;;;;;;;17.17;11.03;;;8.40;99.90;;;;;;5114807;28;20490;-71
2022/04/25 05:45:37;;;;;;;12.97;10.40;;;8.40;99.90;;;;;;5115294;28;20477;-72
2022/04/25 05:51:58;;;;;;;15.83;10.10;;;8.50;99.90;;;;;;5115799;28;20452;-71
2022/04/25 05:53:42;;;;;;;13.13;9.90;;;8.60;99.90;;;;;;5116595;28;20424;-72
2022/04/25 05:56:09;;;;;;;10.17;8.43;;;8.60;99.90;;;;;;5115898;28;20490;-72
2022/04/25 05:58:35;;;;;;;10.13;9.03;;;8.60;99.90;;;;;;5114127;28;20478;-73
2022/04/25 06:01:02;;;;;;;12.60;8.50;;;8.70;99.90;;;;;;5114738;28;20468;-72
2022/04/25 06:03:29;;;;;;;18.13;9.50;;;8.80;99.90;;;;;;5113965;28;20453;-71
2022/04/25 06:05:57;;;;;;;9.80;7.33;;;8.70;99.90;;;;;;5114374;28;20461;-71
2022/04/25 06:08:23;;;;;;;9.77;8.10;;;8.70;99.90;;;;;;5114695;28;20463;-71
2022/04/25 06:10:50;;;;;;;8.90;7.23;;;8.80;99.90;;;;;;5114310;28;20463;-71
2022/04/25 06:13:18;;;;;;;11.43;8.57;;;8.80;99.90;;;;;;5114243;28;20463;-71
2022/04/25 06:15:45;;;;;;;12.90;9.57;;;8.90;99.90;;;;;;5114242;28;21138;-72
2022/04/25 06:18:11;;;;;;;9.93;7.80;;;8.90;99.90;;;;;;5114249;28;20464;-72
2022/04/25 06:20:38;;;;;;;12.47;8.10;;;8.90;99.90;;;;;;5114098;28;20468;-71
2022/04/25 06:23:06;;;;;;;13.40;7.70;;;8.90;99.90;;;;;;5114412;28;20464;-72
2022/04/25 06:25:33;;;;;;;13.00;9.27;;;8.90;99.90;;;;;;5117603;28;20459;-72
2022/04/25 06:28:00;;;;;;;10.77;8.27;;;8.90;99.90;;;;;;5117485;28;20466;-71
2022/04/25 06:30:29;;;;;;;10.13;8.00;;;8.90;99.90;;;;;;5118505;28;20828;-70
2022/04/25 06:32:56;;;;;;;10.73;7.53;;;9.00;99.90;;;;;;5117679;28;20463;-71
2022/04/25 06:35:22;;;;;;;11.03;7.37;;;9.10;99.90;;;;;;5117290;28;20464;-71
2022/04/25 06:37:49;;;;;;;9.73;7.23;;;9.20;99.90;;;;;;5117610;28;20521;-72
2022/04/25 06:40:18;;;;;;;10.10;7.27;;;9.30;99.90;;;;;;5117352;28;20456;-71
2022/04/25 06:42:45;;;;;;;7.70;6.50;;;9.40;99.90;;;;;;5117485;28;20448;-72
2022/04/25 06:45:13;;;;;;;8.93;6.77;;;9.40;99.90;;;;;;5117156;28;20452;-72
2022/04/25 06:47:39;;;;;;;13.53;7.60;;;9.50;99.90;;;;;;5116791;28;20517;-71
2022/04/25 06:50:07;;;;;;;8.93;7.33;;;9.60;99.90;;;;;;5116622;28;20793;-72
2022/04/25 06:52:34;;;;;;;9.47;7.20;;;9.70;99.90;;;;;;5116797;28;20456;-71
2022/04/25 06:55:00;;;;;;;10.63;7.43;;;9.80;99.90;;;;;;5116847;28;20541;-72
2022/04/25 06:57:30;;;;;;;8.17;6.27;;;9.80;99.90;;;;;;5116671;28;20991;-71
2022/04/25 06:59:57;;;;;;;9.70;6.50;;;9.90;99.90;;;;;;5116881;28;20520;-71
2022/04/25 07:02:23;;;;;;;7.93;7.13;;;9.90;99.90;;;;;;5116891;28;20942;-71
2022/04/25 07:04:50;;;;;;;9.50;6.57;;;9.90;99.90;;;;;;5117191;28;20483;-71
2022/04/25 07:07:17;;;;;;;12.50;7.17;;;9.90;99.90;;;;;;5116937;28;20452;-71
2022/04/25 07:09:45;;;;;;;11.20;7.60;;;9.90;99.90;;;;;;5117092;28;20462;-72
2022/04/25 07:12:12;;;;;;;11.90;7.57;;;9.90;99.90;;;;;;5117007;28;20453;-72
2022/04/25 07:14:40;;;;;;;9.83;7.43;;;10.00;99.90;;;;;;5116276;28;20482;-72
2022/04/25 07:17:07;;;;;;;35.87;20.90;;;10.10;99.90;;;;;;5117973;28;20476;-71
2022/04/25 07:19:38;;;;;;;9.43;7.00;;;10.20;99.90;;;;;;5116724;28;20464;-71
2022/04/25 07:30:18;;;;;;;7.43;6.23;;;10.10;99.90;;;;;;5116985;28;20469;-71
2022/04/25 07:32:45;;;;;;;9.13;7.03;;;10.00;99.90;;;;;;5116990;28;20521;-72
2022/04/25 07:35:12;;;;;;;8.00;5.33;;;9.90;99.90;;;;;;5116245;28;21080;-72
2022/04/25 07:37:39;;;;;;;11.17;6.13;;;9.90;99.90;;;;;;5116225;28;20481;-72
2022/04/25 07:40:08;;;;;;;8.43;6.73;;;9.80;99.90;;;;;;5116375;28;20970;-71
2022/04/25 07:42:35;;;;;;;11.50;6.80;;;9.90;99.90;;;;;;5116633;28;20456;-70
2022/04/25 07:45:02;;;;;;;10.17;6.20;;;9.80;99.90;;;;;;5115604;28;20456;-70
2022/04/25 07:47:32;;;;;;;10.53;6.73;;;9.80;99.90;;;;;;5116328;28;20818;-71
2022/04/25 07:49:59;;;;;;;8.73;5.97;;;9.80;99.90;;;;;;5116023;28;20718;-71
2022/04/25 07:52:26;;;;;;;9.97;6.33;;;9.80;99.90;;;;;;5115932;28;20525;-70
2022/04/25 07:54:55;;;;;;;13.30;6.17;;;9.80;99.90;;;;;;5115722;28;20465;-71
2022/04/25 07:57:21;;;;;;;8.53;5.40;;;9.90;99.90;;;;;;5116521;28;20551;-71
2022/04/25 07:59:48;;;;;;;7.37;5.83;;;10.00;99.90;;;;;;5116477;28;20467;-71
2022/04/25 08:02:17;;;;;;;6.37;4.90;;;10.20;99.90;;;;;;5115572;28;20505;-71
2022/04/25 08:04:46;;;;;;;7.77;5.83;;;10.30;99.90;;;;;;5115757;28;20453;-71
2022/04/25 08:07:12;;;;;;;7.97;6.00;;;10.30;99.90;;;;;;5115595;28;20602;-71
2022/04/25 08:09:39;;;;;;;8.17;6.23;;;10.40;99.90;;;;;;5116058;28;20465;-70
2022/04/25 08:20:21;;;;;;;7.90;6.00;;;10.70;99.90;;;;;;5115730;28;20427;-72
2022/04/25 08:22:48;;;;;;;11.20;6.30;;;10.70;99.90;;;;;;5115524;28;20452;-71
2022/04/25 08:25:16;;;;;;;9.37;5.80;;;10.70;99.90;;;;;;5115842;28;20769;-71
2022/04/25 08:27:43;;;;;;;9.27;5.97;;;10.70;99.90;;;;;;5115606;28;20448;-71
2022/04/25 08:30:11;;;;;;;11.67;6.43;;;10.70;99.90;;;;;;5115438;28;20474;-70
2022/04/25 08:32:38;;;;;;;8.50;5.57;;;10.50;99.90;;;;;;5114999;28;20909;-70
2022/04/25 08:35:06;;;;;;;9.87;6.30;;;10.40;99.90;;;;;;5115572;28;20475;-71
2022/04/25 08:37:34;;;;;;;7.40;6.03;;;10.30;99.90;;;;;;5115231;28;20540;-71
2022/04/25 08:40:01;;;;;;;13.93;7.40;;;10.30;99.90;;;;;;5115750;28;20466;-71
2022/04/25 08:42:27;;;;;;;15.27;7.97;;;10.30;99.90;;;;;;5115520;28;20453;-71
2022/04/25 08:44:57;;;;;;;11.90;6.50;;;10.20;99.90;;;;;;5115145;28;20452;-71
2022/04/25 08:47:27;;;;;;;9.10;5.53;;;10.30;99.90;;;;;;5114202;28;20453;-71
2022/04/25 08:49:57;;;;;;;8.47;5.50;;;10.40;99.90;;;;;;5115108;28;20510;-71
2022/04/25 08:52:24;;;;;;;10.37;4.90;;;10.60;99.90;;;;;;5114952;28;20462;-71
2022/04/25 08:54:54;;;;;;;8.77;5.00;;;10.80;99.90;;;;;;5115150;28;20456;-70
2022/04/25 08:57:22;;;;;;;9.80;5.67;;;10.90;99.90;;;;;;5114555;28;20943;-71
2022/04/25 08:59:49;;;;;;;7.27;5.33;;;11.00;99.90;;;;;;5115021;28;20452;-72
2022/04/25 09:02:15;;;;;;;15.20;9.97;;;11.00;99.90;;;;;;5114824;28;20453;-71
2022/04/25 09:04:44;;;;;;;7.10;5.80;;;11.00;99.90;;;;;;5115077;28;20448;-71
2022/04/25 09:07:11;;;;;;;6.33;4.50;;;11.10;99.90;;;;;;5114895;28;20491;-70
2022/04/25 09:09:38;;;;;;;6.57;4.80;;;11.10;99.90;;;;;;5115062;28;20457;-71
2022/04/25 09:12:10;;;;;;;5.93;4.17;;;11.20;99.90;;;;;;5114682;28;20492;-70
2022/04/25 09:14:39;;;;;;;5.27;4.60;;;11.30;99.90;;;;;;5115624;28;20461;-70
2022/04/25 09:17:06;;;;;;;4.50;4.10;;;11.40;99.90;;;;;;5114338;28;20487;-71
2022/04/25 09:19:33;;;;;;;6.90;5.00;;;11.40;99.90;;;;;;5114602;28;20456;-71
2022/04/25 09:22:00;;;;;;;9.77;4.47;;;11.50;99.90;;;;;;5114749;28;20482;-71
2022/04/25 09:24:28;;;;;;;19.27;13.20;;;11.60;99.90;;;;;;5114795;28;20540;-71
2022/04/25 09:27:12;;;;;;;5.20;4.40;;;11.70;99.90;;;;;;5114221;28;20459;-71
2022/04/25 09:29:40;;;;;;;11.87;8.10;;;11.80;99.90;;;;;;5114569;28;20436;-71
2022/04/25 09:32:09;;;;;;;14.60;9.97;;;11.90;99.90;;;;;;5114571;28;20932;-71
2022/04/25 09:37:47;;;;;;;5.53;4.00;;;12.00;99.90;;;;;;5053099;28;20794;-70
2022/04/25 09:40:20;;;;;;;6.63;4.43;;;12.10;99.90;;;;;;5052340;28;20772;-71
2022/04/25 09:42:48;;;;;;;4.90;3.77;;;12.30;99.90;;;;;;5086455;28;20463;-70
2022/04/25 09:45:15;;;;;;;4.97;4.20;;;12.30;99.90;;;;;;5115298;28;20464;-70
2022/04/25 09:47:42;;;;;;;6.00;4.60;;;12.40;99.90;;;;;;5115228;28;20511;-70
2022/04/25 09:50:11;;;;;;;10.53;4.13;;;12.50;99.90;;;;;;5114663;28;20459;-71
2022/04/25 09:52:54;;;;;;;6.53;3.90;;;12.50;99.90;;;;;;5114768;28;20456;-70
2022/04/25 09:55:22;;;;;;;5.80;4.07;;;12.60;99.90;;;;;;5114601;28;20488;-70
2022/04/25 09:57:50;;;;;;;5.13;3.73;;;12.60;99.90;;;;;;5114378;28;20476;-71
2022/04/25 10:00:30;;;;;;;4.20;3.50;;;12.80;99.90;;;;;;5119617;28;20569;-76
2022/04/25 10:02:57;;;;;;;6.03;3.80;;;12.90;99.90;;;;;;5118844;28;20441;-72
2022/04/25 10:05:37;;;;;;;5.93;3.43;;;13.00;99.90;;;;;;5118336;28;20808;-70
2022/04/25 10:08:05;;;;;;;7.23;3.83;;;13.10;99.90;;;;;;5118653;28;20493;-71
2022/04/25 10:10:32;;;;;;;4.83;4.23;;;13.20;99.90;;;;;;5117856;28;20487;-70
2022/04/25 10:13:00;;;;;;;3.93;3.30;;;13.20;99.90;;;;;;5118389;28;20451;-70
2022/04/25 10:15:27;;;;;;;10.37;4.77;;;13.20;99.90;;;;;;5118242;28;20460;-71
2022/04/25 10:17:56;;;;;;;6.10;4.17;;;13.30;99.90;;;;;;5118393;28;20506;-71
2022/04/25 10:20:23;;;;;;;6.47;4.33;;;13.40;99.90;;;;;;5118413;28;20456;-71
2022/04/25 10:22:50;;;;;;;7.03;3.30;;;13.50;99.90;;;;;;5117759;28;20478;-70
2022/04/25 10:25:17;;;;;;;13.87;11.03;;;13.40;99.90;;;;;;5118213;28;20452;-70
2022/04/25 10:27:45;;;;;;;6.93;4.30;;;13.40;99.90;;;;;;5117966;28;20776;-70
2022/04/25 10:30:16;;;;;;;4.33;3.27;;;13.50;99.90;;;;;;5117586;28;20563;-70
2022/04/25 10:32:43;;;;;;;5.03;3.87;;;13.50;99.90;;;;;;5117976;28;20525;-71
2022/04/25 10:35:14;;;;;;;7.43;3.93;;;13.40;99.90;;;;;;5117815;28;20448;-71
2022/04/25 10:37:43;;;;;;;5.13;3.77;;;13.40;99.90;;;;;;5118293;28;20521;-72
2022/04/25 10:40:12;;;;;;;7.73;5.47;;;13.40;99.90;;;;;;5118409;28;20502;-72
2022/04/25 10:45:56;;;;;;;5.77;3.77;;;13.60;99.90;;;;;;5118217;28;20574;-70
2022/04/25 10:48:23;;;;;;;4.00;3.60;;;13.80;99.90;;;;;;5118814;28;20498;-71
2022/04/25 10:51:09;;;;;;;4.30;3.90;;;13.90;99.90;;;;;;5118620;28;20555;-70
2022/04/25 10:53:59;;;;;;;8.30;3.90;;;13.90;99.90;;;;;;5117276;28;20517;-71
2022/04/25 10:56:26;;;;;;;5.57;3.83;;;14.00;99.90;;;;;;5118238;28;20480;-70
2022/04/25 10:59:23;;;;;;;6.90;3.90;;;14.10;99.90;;;;;;5117303;28;20975;-71
2022/04/25 11:01:52;;;;;;;5.13;4.07;;;14.30;99.90;;;;;;5117497;28;20527;-70
2022/04/25 11:04:19;;;;;;;6.93;4.20;;;14.50;99.90;;;;;;5118221;28;20912;-70
2022/04/25 11:06:47;;;;;;;7.50;4.73;;;14.60;99.90;;;;;;5118343;28;20452;-70
2022/04/25 11:09:37;;;;;;;8.23;4.13;;;14.60;99.90;;;;;;5117667;28;20456;-71
2022/04/25 11:12:05;;;;;;;6.13;4.30;;;14.70;99.90;;;;;;5118999;28;20433;-71
2022/04/25 11:14:32;;;;;;;5.73;3.47;;;14.70;99.90;;;;;;5119875;28;20452;-70
2022/04/25 11:17:14;;;;;;;4.50;3.77;;;14.70;99.90;;;;;;5118302;28;20460;-71
2022/04/25 11:19:51;;;;;;;7.33;5.23;;;14.70;99.90;;;;;;5116968;28;20441;-71
2022/04/25 11:22:47;;;;;;;5.37;3.60;;;14.70;99.90;;;;;;5116909;28;20842;-71
2022/04/25 11:25:37;;;;;;;4.93;3.40;;;14.80;99.90;;;;;;5116875;28;20486;-71
2022/04/25 11:28:05;;;;;;;3.83;3.20;;;14.90;99.90;;;;;;5117322;28;20453;-72
2022/04/25 11:30:32;;;;;;;4.00;3.50;;;15.00;99.90;;;;;;5116952;28;20604;-70
2022/04/25 11:33:04;;;;;;;4.87;4.20;;;15.10;99.90;;;;;;5117398;28;20452;-70
2022/04/25 11:35:31;;;;;;;3.80;3.33;;;15.20;99.90;;;;;;5116947;28;20441;-71
2022/04/25 11:37:59;;;;;;;4.70;3.90;;;15.30;99.90;;;;;;5117039;28;20805;-70
2022/04/25 11:40:27;;;;;;;7.10;3.60;;;15.40;99.90;;;;;;5116787;28;20452;-71
2022/04/25 11:42:54;;;;;;;3.80;3.40;;;15.40;99.90;;;;;;5116914;28;20978;-70
2022/04/25 11:45:21;;;;;;;4.70;4.20;;;15.20;99.90;;;;;;5117091;28;20452;-70
2022/04/25 11:47:48;;;;;;;4.57;3.93;;;15.10;99.90;;;;;;5116497;28;20449;-70
2022/04/25 11:50:20;;;;;;;5.50;3.93;;;15.20;99.90;;;;;;5116396;28;20817;-70
2022/04/25 11:52:48;;;;;;;3.87;3.57;;;15.40;99.90;;;;;;5116291;28;20536;-71
2022/04/25 11:55:17;;;;;;;5.53;3.67;;;15.40;99.90;;;;;;5116303;28;20591;-71
2022/04/25 11:57:45;;;;;;;4.20;3.43;;;15.40;99.90;;;;;;5116035;28;20484;-71
2022/04/25 12:00:17;;;;;;;5.27;3.47;;;15.60;99.90;;;;;;5116157;28;20766;-70
2022/04/25 12:02:45;;;;;;;3.63;3.33;;;15.60;99.90;;;;;;5116644;28;20449;-71
2022/04/25 12:05:12;;;;;;;7.37;3.40;;;15.70;99.90;;;;;;5116712;28;20486;-72
2022/04/25 12:15:34;;;;;;;5.93;4.23;;;15.70;99.90;;;;;;5116202;28;20551;-70
2022/04/25 12:16:02;;;;;;;3.20;2.90;;;16.50;99.90;;;;;;5115865;28;20428;-72
2022/04/25 12:18:30;;;;;;;5.00;3.47;;;16.90;99.90;;;;;;5116048;28;20476;-71
2022/04/25 12:21:03;;;;;;;4.63;3.03;;;17.20;99.90;;;;;;5115881;28;20503;-71
2022/04/25 12:23:33;;;;;;;5.07;3.87;;;17.50;99.90;;;;;;5115918;28;20469;-71
2022/04/25 12:26:03;;;;;;;4.03;3.57;;;17.50;99.90;;;;;;5116042;28;20456;-72
2022/04/25 12:28:31;;;;;;;17.80;12.20;;;17.50;99.90;;;;;;5115674;28;20448;-71
2022/04/25 12:31:05;;;;;;;6.10;3.80;;;17.60;99.90;;;;;;5115700;28;20452;-71
2022/04/25 12:33:34;;;;;;;3.93;3.47;;;17.80;99.90;;;;;;5115904;28;20449;-71
2022/04/25 12:36:14;;;;;;;3.67;3.37;;;18.10;99.90;;;;;;5115395;28;20457;-72
2022/04/25 12:38:44;;;;;;;3.47;3.17;;;18.40;99.90;;;;;;5115197;28;20479;-71
2022/04/25 12:41:20;;;;;;;5.80;4.53;;;18.80;99.90;;;;;;5115787;28;20484;-72
2022/04/25 12:43:49;;;;;;;4.40;3.87;;;19.50;99.90;;;;;;5116157;28;20493;-71
2022/04/25 12:46:17;;;;;;;3.63;3.30;;;20.00;99.90;;;;;;5115601;28;20459;-72
2022/04/25 12:49:04;;;;;;;6.23;5.63;;;20.30;99.90;;;;;;5115779;28;20495;-71
2022/04/25 12:51:37;;;;;;;3.60;3.10;;;21.00;99.90;;;;;;5115118;28;20434;-72
2022/04/25 12:54:07;;;;;;;5.40;4.07;;;21.60;99.70;;;;;;5115294;28;20439;-71
2022/04/25 12:56:39;;;;;;;8.17;6.20;;;22.20;95.70;;;;;;5115421;28;20506;-75
2022/04/25 12:59:36;;;;;;;5.27;4.70;;;22.90;94.10;;;;;;5120344;28;20464;-78
2022/04/25 13:02:07;;;;;;;2.90;2.60;;;23.20;86.10;;;;;;5119832;28;20464;-71
2022/04/25 13:04:48;;;;;;;5.43;3.30;;;23.40;81.10;;;;;;5114723;28;20896;-71
2022/04/25 13:07:14;;;;;;;3.30;3.00;;;23.60;76.90;;;;;;5114514;28;20536;-72
2022/04/25 13:09:42;;;;;;;5.83;5.20;;;23.90;74.60;;;;;;5115050;28;20452;-73
2022/04/25 13:12:14;;;;;;;3.93;3.23;;;24.40;68.30;;;;;;5114854;28;20791;-72
2022/04/25 13:14:41;;;;;;;3.90;3.60;;;24.80;65.50;;;;;;5114531;28;20897;-71
2022/04/25 13:17:08;;;;;;;4.37;3.63;;;25.00;59.90;;;;;;5114960;28;20511;-71
2022/04/25 13:19:34;;;;;;;6.20;3.03;;;24.90;58.10;;;;;;5114541;28;20487;-73
2022/04/25 13:22:01;;;;;;;4.50;4.00;;;24.70;58.10;;;;;;5114555;28;20464;-72
2022/04/25 13:24:28;;;;;;;7.67;6.10;;;25.00;58.10;;;;;;5114738;28;20742;-72
2022/04/25 13:26:56;;;;;;;3.73;3.43;;;25.50;56.10;;;;;;5114887;28;20460;-71
2022/04/25 13:29:23;;;;;;;6.13;3.37;;;25.60;54.00;;;;;;5114232;28;20464;-73